Time;durP1;ratioP1;P1;durP2;ratioP2;P2;SDS_P1;SDS_P2;PMS_P1;PMS_P2;Temp;Humidity;BMP_temperature;BMP_pressure;BME280_temperature;BME280_humidity;BME280_pressure;Samples;Min_cycle;Max_cycle;Signal;HPM_P1;HPM_P2
2022/11/01 00:04:29;;;;;;;;;;;;;;;20.37;50.93;95715.88;10536909;28;1985;-52
2022/11/01 00:09:30;;;;;;;;;;;;;;;20.37;50.93;95729.03;10529562;28;1647;-50
2022/11/01 00:14:30;;;;;;;;;;;;;;;20.38;50.97;95725.31;10537383;28;999;-52
2022/11/01 00:19:32;;;;;;;;;;;;;;;20.39;50.79;95726.91;10535920;28;1651;-51
2022/11/01 00:24:33;;;;;;;;;;;;;;;20.37;50.89;95723.78;10543422;28;1909;-48
2022/11/01 00:29:33;;;;;;;;;;;;;;;20.38;50.90;95721.94;10560089;27;1722;-49
2022/11/01 00:34:33;;;;;;;;;;;;;;;20.38;50.88;95717.44;10543887;28;1199;-51
2022/11/01 00:39:37;;;;;;;;;;;;;;;20.40;50.89;95711.91;10544578;28;1608;-52
2022/11/01 00:44:37;;;;;;;;;;;;;;;20.39;50.89;95713.75;10538515;28;1971;-49
2022/11/01 00:49:37;;;;;;;;;;;;;;;20.37;50.82;95702.72;10537800;28;1049;-48
2022/11/01 00:54:37;;;;;;;;;;;;;;;20.36;51.03;95703.00;10532848;28;1559;-50
2022/11/01 00:59:39;;;;;;;;;;;;;;;20.36;50.96;95701.13;10530172;28;1418;-49
2022/11/01 01:04:42;;;;;;;;;;;;;;;20.37;50.70;95702.72;10536035;28;1906;-49
2022/11/01 01:09:42;;;;;;;;;;;;;;;20.37;50.82;95700.06;10531350;28;1690;-52
2022/11/01 01:14:42;;;;;;;;;;;;;;;20.36;50.79;95703.75;10534715;28;1094;-52
2022/11/01 01:19:42;;;;;;;;;;;;;;;20.37;50.74;95705.34;10529765;28;1682;-49
2022/11/01 01:24:46;;;;;;;;;;;;;;;20.35;50.77;95696.94;10526580;28;1882;-51
2022/11/01 01:29:47;;;;;;;;;;;;;;;20.35;50.64;95696.13;10529643;28;1468;-52
2022/11/01 01:34:47;;;;;;;;;;;;;;;20.36;50.78;95690.59;10535225;28;1186;-47
2022/11/01 01:39:48;;;;;;;;;;;;;;;20.36;50.75;95692.47;10532366;28;1607;-49
2022/11/01 01:44:52;;;;;;;;;;;;;;;20.34;50.71;95676.91;10535058;28;1970;-50
2022/11/01 01:50:04;;;;;;;;;;;;;;;20.36;50.92;95674.03;10532996;28;1702;-51
2022/11/01 01:55:05;;;;;;;;;;;;;;;20.36;50.67;95679.28;10531527;28;1659;-53
2022/11/01 02:00:05;;;;;;;;;;;;;;;20.34;50.78;95676.91;10528020;28;1436;-50
2022/11/01 02:05:08;;;;;;;;;;;;;;;20.34;50.85;95676.91;10531988;28;1917;-53
2022/11/01 02:10:08;;;;;;;;;;;;;;;20.34;50.58;95671.66;10565057;28;1132;-51
2022/11/01 02:15:12;;;;;;;;;;;;;;;20.34;50.77;95676.16;10532211;28;1595;-50
2022/11/01 02:20:31;;;;;;;;;;;;;;;20.33;50.81;95678.00;10538553;28;1089;-52
2022/11/01 02:25:43;;;;;;;;;;;;;;;20.33;50.69;95679.81;10540316;28;1662;-51
2022/11/01 02:30:44;;;;;;;;;;;;;;;20.33;50.73;95679.81;10535422;28;1441;-49
2022/11/01 02:35:50;;;;;;;;;;;;;;;20.34;50.65;95678.78;10539475;28;1512;-52
2022/11/01 02:41:02;;;;;;;;;;;;;;;20.33;50.70;95682.47;10540717;28;1910;-49
2022/11/01 02:46:59;;;;;;;;;;;;;;;20.32;50.64;95681.66;10533100;28;1682;-52
2022/11/01 02:51:23;;;;;;;;;;;;;;;20.32;50.67;95684.28;10497052;28;1406;-50
2022/11/01 02:56:23;;;;;;;;;;;;;;;20.32;50.78;95691.44;10523691;28;1687;-49
2022/11/01 03:01:24;;;;;;;;;;;;;;;20.31;50.55;95682.75;10537947;28;1898;-51
2022/11/01 03:06:38;;;;;;;;;;;;;;;20.31;50.64;95685.38;10534678;28;1670;-52
2022/11/01 03:11:42;;;;;;;;;;;;;;;20.31;50.81;95693.28;10539270;28;1225;-53
2022/11/01 03:17:03;;;;;;;;;;;;;;;20.31;50.50;95701.16;10539940;28;1733;-50
2022/11/01 03:22:08;;;;;;;;;;;;;;;20.32;50.88;95709.84;10542583;28;1901;-51
2022/11/01 03:27:14;;;;;;;;;;;;;;;20.31;51.01;95706.44;10535008;28;1453;-51
2022/11/01 03:32:14;;;;;;;;;;;;;;;20.32;50.80;95707.22;10543501;28;1183;-50
2022/11/01 03:37:14;;;;;;;;;;;;;;;20.30;50.67;95707.47;10536273;28;1706;-51
2022/11/01 03:42:17;;;;;;;;;;;;;;;20.29;50.72;95726.97;10537741;28;1898;-53
2022/11/01 03:47:17;;;;;;;;;;;;;;;20.30;50.44;95736.44;10530972;28;1706;-49
2022/11/01 03:52:18;;;;;;;;;;;;;;;20.29;50.64;95732.25;10494363;28;713;-49
2022/11/01 03:57:18;;;;;;;;;;;;;;;20.30;50.78;95733.78;10523418;28;1702;-51
2022/11/01 04:02:18;;;;;;;;;;;;;;;20.29;50.74;95734.88;10536065;28;1976;-48
2022/11/01 04:07:19;;;;;;;;;;;;;;;20.30;50.72;95741.69;10534484;28;1619;-51
2022/11/01 04:12:19;;;;;;;;;;;;;;;20.29;50.49;95742.78;10536284;28;1010;-52
2022/11/01 04:22:38;;;;;;;;;;;;;;;20.27;50.74;95750.94;10536944;28;1976;-50
2022/11/01 04:27:38;;;;;;;;;;;;;;;20.28;50.60;95763.03;10529086;28;1842;-51
2022/11/01 04:32:41;;;;;;;;;;;;;;;20.28;50.43;95767.50;10534394;28;1166;-48
2022/11/01 04:37:41;;;;;;;;;;;;;;;20.27;50.94;95772.00;10528526;28;1612;-53
2022/11/01 04:42:42;;;;;;;;;;;;;;;20.27;50.76;95776.47;10535648;28;1911;-53
2022/11/01 04:47:49;;;;;;;;;;;;;;;20.28;50.60;95784.09;10532384;28;1698;-51
2022/11/01 04:52:49;;;;;;;;;;;;;;;20.27;50.54;95781.75;10535165;28;1062;-50
2022/11/01 04:57:50;;;;;;;;;;;;;;;20.26;50.58;95783.56;10524429;28;1603;-50
2022/11/01 05:02:50;;;;;;;;;;;;;;;20.27;50.59;95802.78;10534666;28;1914;-48
2022/11/01 05:07:57;;;;;;;;;;;;;;;20.26;50.82;95801.22;10524678;28;1674;-51
2022/11/01 05:12:57;;;;;;;;;;;;;;;20.25;50.73;95795.19;10533580;28;1517;-50
2022/11/01 05:17:58;;;;;;;;;;;;;;;20.28;50.48;95793.81;10531643;28;1170;-50
2022/11/01 05:22:59;;;;;;;;;;;;;;;20.26;50.55;95809.09;10531254;28;1977;-52
2022/11/01 05:28:00;;;;;;;;;;;;;;;20.26;50.58;95822.25;10529099;28;1544;-50
2022/11/01 05:33:00;;;;;;;;;;;;;;;20.25;50.44;95832.03;10534224;28;1183;-50
2022/11/01 05:38:01;;;;;;;;;;;;;;;20.27;50.58;95827.28;10529603;28;1639;-52
2022/11/01 05:43:05;;;;;;;;;;;;;;;20.24;50.83;95819.13;10534386;28;1917;-51
2022/11/01 05:48:06;;;;;;;;;;;;;;;20.27;50.41;95834.38;10531724;28;1730;-51
2022/11/01 05:53:06;;;;;;;;;;;;;;;20.24;50.75;95840.97;10534394;28;1630;-52
2022/11/01 05:58:06;;;;;;;;;;;;;;;20.23;50.68;95841.25;10535564;28;1500;-52
2022/11/01 06:03:07;;;;;;;;;;;;;;;20.26;50.60;95856.47;10541801;28;1910;-48
2022/11/01 06:08:07;;;;;;;;;;;;;;;20.23;50.70;95860.47;10540859;28;1651;-52
2022/11/01 06:13:08;;;;;;;;;;;;;;;20.24;50.61;95855.97;10543483;28;1023;-48
2022/11/01 06:18:08;;;;;;;;;;;;;;;20.23;50.44;95859.66;10543385;28;1611;-50
2022/11/01 06:23:08;;;;;;;;;;;;;;;20.23;50.71;95875.47;10540787;28;1961;-49
2022/11/01 06:28:09;;;;;;;;;;;;;;;20.23;50.47;95886.78;10542233;28;1528;-53
2022/11/01 06:33:09;;;;;;;;;;;;;;;20.22;50.58;95901.00;10548865;28;1163;-51
2022/11/01 06:38:09;;;;;;;;;;;;;;;20.23;50.87;95922.84;10538825;28;1706;-48
2022/11/01 06:43:10;;;;;;;;;;;;;;;20.23;50.54;95947.31;10540722;28;1971;-51
2022/11/01 06:48:10;;;;;;;;;;;;;;;20.21;50.66;95946.81;10539864;28;1560;-52
2022/11/01 06:53:10;;;;;;;;;;;;;;;20.21;50.54;95953.91;10540105;28;1163;-52
2022/11/01 06:58:11;;;;;;;;;;;;;;;20.23;50.41;95970.22;10537229;28;1639;-49
2022/11/01 07:03:11;;;;;;;;;;;;;;;20.18;50.63;95963.09;10538236;28;1980;-53
2022/11/01 07:08:12;;;;;;;;;;;;;;;20.21;50.40;95974.97;10537659;28;1628;-51
2022/11/01 07:13:12;;;;;;;;;;;;;;;20.19;50.72;95979.66;10538895;28;1039;-49
2022/11/01 07:18:12;;;;;;;;;;;;;;;20.18;50.38;95989.41;10535998;28;1674;-50
2022/11/01 07:23:14;;;;;;;;;;;;;;;20.18;50.36;95996.50;10520569;28;1965;-50
2022/11/01 07:28:20;;;;;;;;;;;;;;;20.19;50.60;96006.81;10531073;28;1675;-52
2022/11/01 07:33:20;;;;;;;;;;;;;;;20.17;50.42;96008.88;10539269;28;1085;-50
2022/11/01 07:38:25;;;;;;;;;;;;;;;20.17;50.28;96018.63;10536805;28;1656;-52
2022/11/01 07:43:26;;;;;;;;;;;;;;;20.16;50.40;96032.81;10538639;28;1958;-48
2022/11/01 07:48:26;;;;;;;;;;;;;;;20.17;50.53;96031.78;10536585;28;1710;-51
2022/11/01 07:53:26;;;;;;;;;;;;;;;20.18;50.42;96035.97;10538048;28;999;-50
2022/11/01 07:58:26;;;;;;;;;;;;;;;20.19;50.50;96029.69;10530979;28;1615;-50
2022/11/01 08:03:27;;;;;;;;;;;;;;;20.20;50.45;96028.66;10537288;28;1930;-48
2022/11/01 08:08:27;;;;;;;;;;;;;;;20.22;50.58;96029.16;10535385;28;1620;-51
2022/11/01 08:13:27;;;;;;;;;;;;;;;20.22;50.58;96026.53;10535064;28;1553;-48
2022/11/01 08:18:28;;;;;;;;;;;;;;;20.23;50.27;96018.41;10535851;28;1156;-49
2022/11/01 08:23:28;;;;;;;;;;;;;;;20.23;50.32;96017.59;10533720;28;1978;-50
2022/11/01 08:28:29;;;;;;;;;;;;;;;20.22;50.35;96023.91;10529690;28;1449;-53
2022/11/01 08:33:29;;;;;;;;;;;;;;;20.21;50.50;96025.78;10517752;28;1164;-49
2022/11/01 08:38:30;;;;;;;;;;;;;;;20.22;50.42;96035.22;10536174;28;1671;-51
2022/11/01 08:43:30;;;;;;;;;;;;;;;20.24;50.50;96040.22;10534582;28;1961;-49
2022/11/01 08:48:31;;;;;;;;;;;;;;;20.23;50.14;96038.66;10535210;28;1100;-51
2022/11/01 08:53:31;;;;;;;;;;;;;;;20.21;50.35;96052.09;10533589;28;1619;-50
2022/11/01 08:58:31;;;;;;;;;;;;;;;20.21;50.38;96051.28;10529786;28;1481;-47
2022/11/01 09:03:31;;;;;;;;;;;;;;;20.21;50.43;96051.28;10535113;28;1913;-51
2022/11/01 09:08:32;;;;;;;;;;;;;;;20.20;50.41;96068.91;10530800;28;1627;-50
2022/11/01 09:13:33;;;;;;;;;;;;;;;20.18;50.42;96063.09;10541703;28;810;-55
2022/11/01 09:18:33;;;;;;;;;;;;;;;20.20;50.54;96049.69;10532122;28;1642;-53
2022/11/01 09:23:34;;;;;;;;;;;;;;;20.19;50.46;96038.41;10539747;28;1902;-49
2022/11/01 09:28:34;;;;;;;;;;;;;;;20.19;50.49;96030.50;10528015;28;1786;-51
2022/11/01 09:33:34;;;;;;;;;;;;;;;20.19;50.47;96034.94;10517147;28;1188;-55
2022/11/01 09:38:36;;;;;;;;;;;;;;;20.18;50.58;96033.34;10526863;28;1647;-52
2022/11/01 09:43:36;;;;;;;;;;;;;;;20.16;50.73;96023.09;10533901;28;1914;-52
2022/11/01 09:48:36;;;;;;;;;;;;;;;20.17;50.60;96013.38;10531912;28;1572;-52
2022/11/01 09:53:37;;;;;;;;;;;;;;;20.18;50.48;96022.81;10531982;28;1647;-54
2022/11/01 09:59:01;;;;;;;;;;;;;;;20.15;50.77;96026.75;10529294;28;1417;-50
2022/11/01 10:04:07;;;;;;;;;;;;;;;20.15;50.68;96044.41;10533819;28;1982;-51
2022/11/01 10:09:40;;;;;;;;;;;;;;;20.16;50.71;96056.50;10532316;28;1627;-53
2022/11/01 10:15:02;;;;;;;;;;;;;;;20.15;50.71;96052.31;10510507;28;1266;-49
2022/11/01 10:20:02;;;;;;;;;;;;;;;20.15;50.40;96054.94;10530688;28;1114;-52
2022/11/01 10:25:07;;;;;;;;;;;;;;;20.16;50.63;96051.25;10530225;28;1910;-48
2022/11/01 10:30:10;;;;;;;;;;;;;;;20.18;50.53;96049.94;10527339;28;1410;-51
2022/11/01 10:35:13;;;;;;;;;;;;;;;20.15;50.49;96053.09;10533653;28;1125;-53
2022/11/01 10:40:14;;;;;;;;;;;;;;;20.16;50.71;96051.25;10535457;28;1658;-54
2022/11/01 10:45:15;;;;;;;;;;;;;;;20.17;50.34;96058.09;10539193;28;1977;-49
2022/11/01 10:50:17;;;;;;;;;;;;;;;20.18;50.44;96041.25;10533493;28;1604;-53
2022/11/01 10:55:18;;;;;;;;;;;;;;;20.19;50.46;96043.66;10532812;28;1679;-51
2022/11/01 11:00:19;;;;;;;;;;;;;;;20.22;50.38;96037.06;10526421;28;1425;-52
2022/11/01 11:05:19;;;;;;;;;;;;;;;20.24;50.40;96042.84;10538819;28;1902;-52
2022/11/01 11:10:21;;;;;;;;;;;;;;;20.20;50.26;96039.97;10515729;28;1533;-50
2022/11/01 11:15:32;;;;;;;;;;;;;;;20.21;50.47;96038.13;10538370;28;1615;-54
2022/11/01 11:20:36;;;;;;;;;;;;;;;20.20;50.46;96036.53;10539170;28;1120;-52
2022/11/01 11:25:36;;;;;;;;;;;;;;;20.17;50.51;96044.94;10535373;28;1914;-50
2022/11/01 11:30:36;;;;;;;;;;;;;;;20.17;50.66;96034.41;10533019;28;1432;-53
2022/11/01 11:35:37;;;;;;;;;;;;;;;20.15;50.69;96026.00;10538592;28;1195;-52
2022/11/01 11:40:37;;;;;;;;;;;;;;;20.11;50.81;96023.09;10528884;28;1615;-52
2022/11/01 11:45:38;;;;;;;;;;;;;;;20.12;50.78;96029.16;10536563;28;1984;-53
2022/11/01 11:50:39;;;;;;;;;;;;;;;20.15;50.75;96029.41;10536196;28;1108;-52
2022/11/01 11:55:52;;;;;;;;;;;;;;;20.14;50.73;96034.94;10534670;28;1552;-51
2022/11/01 12:01:02;;;;;;;;;;;;;;;20.17;50.56;96029.16;10532456;28;1973;-48
2022/11/01 12:06:06;;;;;;;;;;;;;;;20.19;50.61;96027.06;10534963;28;1659;-51
2022/11/01 12:11:06;;;;;;;;;;;;;;;20.19;50.76;96032.31;10545916;28;1175;-49
2022/11/01 12:16:16;;;;;;;;;;;;;;;20.14;50.70;96046.25;10535686;28;1674;-50
2022/11/01 12:21:43;;;;;;;;;;;;;;;20.12;50.81;96043.09;10543012;28;1959;-54
2022/11/01 12:26:44;;;;;;;;;;;;;;;20.12;50.80;96042.31;10539676;28;1627;-51
2022/11/01 12:31:44;;;;;;;;;;;;;;;20.13;50.90;96043.91;10532679;28;1015;-51
2022/11/01 12:36:51;;;;;;;;;;;;;;;20.10;51.16;96039.16;10533915;28;1461;-49
2022/11/01 12:41:54;;;;;;;;;;;;;;;20.13;51.08;96046.53;10536340;28;1918;-48
2022/11/01 12:47:03;;;;;;;;;;;;;;;20.14;51.06;96045.47;10516950;28;1723;-49
2022/11/01 12:52:12;;;;;;;;;;;;;;;20.12;50.89;96042.31;10537256;28;984;-52
2022/11/01 12:57:17;;;;;;;;;;;;;;;20.12;51.13;96048.38;10523219;28;1611;-49
2022/11/01 13:02:17;;;;;;;;;;;;;;;20.14;51.04;96048.09;10534623;28;1902;-51
2022/11/01 13:07:21;;;;;;;;;;;;;;;20.15;50.79;96044.41;10532471;28;1678;-50
2022/11/01 13:12:30;;;;;;;;;;;;;;;20.14;50.80;96040.19;10528314;28;1097;-52
2022/11/01 13:17:39;;;;;;;;;;;;;;;20.14;50.92;96045.47;10534427;28;1655;-47
2022/11/01 13:22:55;;;;;;;;;;;;;;;20.14;50.98;96050.72;10537081;28;1893;-51
2022/11/01 13:28:04;;;;;;;;;;;;;;;20.10;51.02;96044.41;10526431;28;1667;-49
2022/11/01 13:33:09;;;;;;;;;;;;;;;20.11;51.14;96046.78;10534885;28;1140;-52
2022/11/01 13:38:10;;;;;;;;;;;;;;;20.09;51.20;96040.22;10533161;28;1583;-49
2022/11/01 13:43:14;;;;;;;;;;;;;;;20.12;51.56;96047.56;10534912;28;1918;-52
2022/11/01 13:48:17;;;;;;;;;;;;;;;20.10;51.25;96052.31;10533837;28;1694;-51
2022/11/01 13:53:23;;;;;;;;;;;;;;;20.12;51.52;96050.19;10531701;28;1667;-52
2022/11/01 13:58:24;;;;;;;;;;;;;;;20.12;51.32;96053.63;10528393;28;1472;-52
2022/11/01 14:03:25;;;;;;;;;;;;;;;20.14;51.52;96050.72;10532441;28;1909;-53
2022/11/01 14:08:26;;;;;;;;;;;;;;;20.12;51.38;96058.88;10527781;28;1686;-53
2022/11/01 14:13:39;;;;;;;;;;;;;;;20.08;51.40;96044.69;10536155;28;1043;-50
2022/11/01 14:18:58;;;;;;;;;;;;;;;20.10;51.45;96050.47;10538185;28;1575;-51
2022/11/01 14:24:05;;;;;;;;;;;;;;;20.14;51.52;96045.47;10533455;28;1917;-50
2022/11/01 14:29:08;;;;;;;;;;;;;;;20.09;51.60;96043.63;10541239;28;1578;-54
2022/11/01 14:34:09;;;;;;;;;;;;;;;20.14;51.37;96051.53;10541270;28;1103;-52
2022/11/01 14:39:32;;;;;;;;;;;;;;;20.14;51.39;96045.47;10538782;28;1679;-52
2022/11/01 14:44:37;;;;;;;;;;;;;;;20.14;51.34;96064.69;10514167;28;1921;-51
2022/11/01 14:49:39;;;;;;;;;;;;;;;20.14;51.22;96056.00;10540900;28;1125;-51
2022/11/01 14:54:43;;;;;;;;;;;;;;;20.18;51.11;96067.56;10531732;28;1643;-53
2022/11/01 14:59:43;;;;;;;;;;;;;;;20.12;51.25;96063.34;10536183;28;1408;-53
2022/11/01 15:04:44;;;;;;;;;;;;;;;20.12;51.29;96060.72;10546209;28;1914;-53
2022/11/01 15:10:02;;;;;;;;;;;;;;;20.13;51.43;96057.06;10538972;28;1525;-53
2022/11/01 15:15:02;;;;;;;;;;;;;;;20.15;51.35;96060.22;10541679;28;1544;-50
2022/11/01 15:20:07;;;;;;;;;;;;;;;20.16;51.28;96067.03;10546076;28;1136;-51
2022/11/01 15:25:12;;;;;;;;;;;;;;;20.12;51.32;96073.88;10542201;28;1955;-49
2022/11/01 15:30:20;;;;;;;;;;;;;;;20.12;51.18;96073.88;10536744;28;1595;-50
2022/11/01 15:35:21;;;;;;;;;;;;;;;20.14;51.14;96079.69;10536172;28;1448;-53
2022/11/01 15:40:26;;;;;;;;;;;;;;;20.13;51.29;96081.50;10537102;28;1450;-54
2022/11/01 15:45:28;;;;;;;;;;;;;;;20.13;51.17;96080.75;10530878;28;1910;-51
2022/11/01 15:50:31;;;;;;;;;;;;;;;20.10;51.08;96082.06;10538833;28;1107;-50
2022/11/01 15:55:31;;;;;;;;;;;;;;;20.10;50.96;96076.78;10535562;28;1576;-53
2022/11/01 16:00:36;;;;;;;;;;;;;;;20.12;51.08;96079.16;10532602;28;1737;-49
2022/11/01 16:05:40;;;;;;;;;;;;;;;20.15;50.97;96086.53;10536149;28;1984;-50
2022/11/01 16:10:41;;;;;;;;;;;;;;;20.07;51.42;96084.44;10530717;28;1650;-54
2022/11/01 16:15:42;;;;;;;;;;;;;;;20.13;50.94;96099.16;10536198;28;1130;-53
2022/11/01 16:20:46;;;;;;;;;;;;;;;20.11;51.29;96099.41;10532944;28;1733;-50
2022/11/01 16:25:47;;;;;;;;;;;;;;;20.10;51.08;96097.03;10499860;28;1978;-51
2022/11/01 16:30:47;;;;;;;;;;;;;;;20.10;51.26;96112.84;10535024;28;1427;-51
2022/11/01 16:35:49;;;;;;;;;;;;;;;20.09;51.18;96109.41;10534702;28;1457;-52
2022/11/01 16:40:49;;;;;;;;;;;;;;;20.10;51.02;96124.16;10537784;28;1081;-53
2022/11/01 16:45:50;;;;;;;;;;;;;;;20.13;50.88;96125.47;10531070;28;1910;-51
2022/11/01 16:50:51;;;;;;;;;;;;;;;20.08;51.24;96133.34;10537296;28;1105;-51
2022/11/01 16:55:52;;;;;;;;;;;;;;;20.12;51.03;96134.41;10531140;28;1056;-51
2022/11/01 17:00:53;;;;;;;;;;;;;;;20.10;51.05;96147.03;10530741;28;1401;-50
2022/11/01 17:05:53;;;;;;;;;;;;;;;20.10;51.15;96157.56;10513784;28;1902;-53
2022/11/01 17:10:53;;;;;;;;;;;;;;;20.06;51.19;96156.50;10532037;28;1129;-52
2022/11/01 17:15:53;;;;;;;;;;;;;;;20.08;51.05;96163.09;10529209;28;1631;-53
2022/11/01 17:20:54;;;;;;;;;;;;;;;20.07;51.00;96166.78;10535606;28;1108;-52
2022/11/01 17:25:54;;;;;;;;;;;;;;;20.09;51.17;96175.19;10525219;28;2341;-50
2022/11/01 17:30:55;;;;;;;;;;;;;;;20.09;51.15;96182.31;10534579;28;1703;-51
2022/11/01 17:35:56;;;;;;;;;;;;;;;20.08;50.92;96183.34;10535068;28;1180;-52
2022/11/01 17:41:00;;;;;;;;;;;;;;;20.08;51.12;96188.63;10533521;28;1765;-52
2022/11/01 17:46:01;;;;;;;;;;;;;;;20.08;50.89;96186.00;10534627;28;1910;-52
2022/11/01 17:51:01;;;;;;;;;;;;;;;20.07;51.04;96194.94;10539496;28;1635;-53
2022/11/01 17:56:01;;;;;;;;;;;;;;;20.08;51.29;96191.25;10538043;28;1557;-50
2022/11/01 18:01:02;;;;;;;;;;;;;;;20.05;51.05;96189.94;10538218;28;1413;-51
2022/11/01 18:06:02;;;;;;;;;;;;;;;20.06;51.15;96188.88;10546094;28;2076;-53
2022/11/01 18:11:04;;;;;;;;;;;;;;;20.09;50.71;96198.13;10546838;28;1626;-51
2022/11/01 18:16:11;;;;;;;;;;;;;;;20.04;50.97;96198.88;10545875;28;1599;-52
2022/11/01 18:21:17;;;;;;;;;;;;;;;20.07;51.10;96189.69;10548644;28;1901;-51
2022/11/01 18:26:21;;;;;;;;;;;;;;;20.06;51.06;96194.16;10537783;28;1671;-51
2022/11/01 18:31:26;;;;;;;;;;;;;;;20.08;51.02;96193.88;10533481;28;1702;-50
2022/11/01 18:36:30;;;;;;;;;;;;;;;20.06;50.84;96185.47;10537244;28;1556;-53
2022/11/01 18:41:30;;;;;;;;;;;;;;;20.06;50.74;96196.00;10540651;28;1910;-51
2022/11/01 18:46:35;;;;;;;;;;;;;;;20.04;51.09;96203.34;10533604;28;1564;-53
2022/11/01 18:51:37;;;;;;;;;;;;;;;20.04;50.90;96200.72;10539692;28;1024;-53
2022/11/01 18:56:37;;;;;;;;;;;;;;;20.07;50.84;96202.84;10531033;28;1639;-52
2022/11/01 19:01:43;;;;;;;;;;;;;;;20.06;51.01;96201.25;10533879;28;1901;-54
2022/11/01 19:06:43;;;;;;;;;;;;;;;20.05;50.84;96202.31;10539187;28;1807;-54
2022/11/01 19:11:43;;;;;;;;;;;;;;;20.03;50.85;96199.16;10540033;28;1159;-53
2022/11/01 19:16:44;;;;;;;;;;;;;;;20.05;51.06;96205.72;10532367;28;1615;-55
2022/11/01 19:21:44;;;;;;;;;;;;;;;20.03;50.90;96201.78;10539847;28;1875;-52
2022/11/01 19:26:45;;;;;;;;;;;;;;;20.04;50.98;96198.09;10537304;28;1749;-52
2022/11/01 19:31:47;;;;;;;;;;;;;;;20.05;50.94;96197.06;10532797;28;1049;-54
2022/11/01 19:36:47;;;;;;;;;;;;;;;20.05;50.96;96192.56;10536656;28;1461;-52
2022/11/01 19:41:47;;;;;;;;;;;;;;;20.02;50.72;96184.41;10537940;28;1917;-53
2022/11/01 19:46:51;;;;;;;;;;;;;;;20.03;50.97;96183.38;10535039;28;1604;-52
2022/11/01 19:51:59;;;;;;;;;;;;;;;20.01;50.95;96188.88;10538687;28;1190;-49
2022/11/01 19:57:00;;;;;;;;;;;;;;;20.03;50.99;96193.88;10530513;28;1734;-50
2022/11/01 20:02:00;;;;;;;;;;;;;;;20.01;51.03;96201.25;10537832;28;1909;-51
2022/11/01 20:07:14;;;;;;;;;;;;;;;20.03;50.82;96201.78;10537951;28;1611;-52
2022/11/01 20:12:14;;;;;;;;;;;;;;;20.02;50.76;96202.81;10536966;28;1096;-51
2022/11/01 20:17:15;;;;;;;;;;;;;;;20.02;50.87;96213.34;10536397;28;1664;-52
2022/11/01 20:22:15;;;;;;;;;;;;;;;20.02;50.85;96218.59;10536012;28;1898;-54
2022/11/01 20:27:17;;;;;;;;;;;;;;;20.01;50.89;96223.06;10531602;28;1663;-53
2022/11/01 20:32:17;;;;;;;;;;;;;;;20.00;50.76;96223.34;10536652;28;1223;-51
2022/11/01 20:37:18;;;;;;;;;;;;;;;20.00;51.01;96226.78;10527947;28;1761;-51
2022/11/01 20:42:18;;;;;;;;;;;;;;;20.03;50.76;96233.38;10535284;28;1969;-52
2022/11/01 20:47:18;;;;;;;;;;;;;;;19.99;51.10;96232.31;10536276;28;1643;-53
2022/11/01 20:52:19;;;;;;;;;;;;;;;20.00;50.77;96234.66;10537435;28;971;-54
2022/11/01 20:57:20;;;;;;;;;;;;;;;19.97;50.91;96232.53;10524429;28;1615;-52
2022/11/01 21:02:21;;;;;;;;;;;;;;;19.96;51.09;96235.44;10538444;28;1968;-51
2022/11/01 21:07:28;;;;;;;;;;;;;;;19.95;50.97;96237.25;10538454;28;1683;-53
2022/11/01 21:12:32;;;;;;;;;;;;;;;19.96;50.85;96238.84;10537779;28;1115;-53
2022/11/01 21:17:32;;;;;;;;;;;;;;;19.94;50.76;96240.16;10533276;28;1714;-50
2022/11/01 21:22:32;;;;;;;;;;;;;;;19.97;50.70;96240.44;10537070;28;1967;-51
2022/11/01 21:27:33;;;;;;;;;;;;;;;19.96;50.91;96238.06;10526076;28;1607;-53
2022/11/01 21:32:33;;;;;;;;;;;;;;;19.95;50.93;96245.16;10535280;28;1120;-49
2022/11/01 21:37:34;;;;;;;;;;;;;;;19.96;50.68;96243.31;10527541;28;1607;-49
2022/11/01 21:42:34;;;;;;;;;;;;;;;19.94;50.91;96240.97;10534630;28;1976;-52
2022/11/01 21:47:35;;;;;;;;;;;;;;;19.93;50.90;96233.31;10525044;28;1749;-53
2022/11/01 21:52:36;;;;;;;;;;;;;;;19.95;50.92;96236.47;10533497;28;1139;-55
2022/11/01 21:57:36;;;;;;;;;;;;;;;19.93;50.94;96238.56;10527694;28;1623;-51
2022/11/01 22:02:36;;;;;;;;;;;;;;;19.93;50.87;96228.03;10534021;28;1913;-51
2022/11/01 22:07:36;;;;;;;;;;;;;;;19.92;50.99;96231.72;10532154;28;1635;-51
2022/11/01 22:12:37;;;;;;;;;;;;;;;19.93;50.76;96225.41;10534323;28;1163;-54
2022/11/01 22:17:37;;;;;;;;;;;;;;;19.91;50.89;96220.41;10533192;28;1662;-50
2022/11/01 22:22:37;;;;;;;;;;;;;;;19.91;50.77;96220.41;10534576;28;1910;-51
2022/11/01 22:27:43;;;;;;;;;;;;;;;19.91;50.77;96219.63;10523429;28;1647;-51
2022/11/01 22:32:43;;;;;;;;;;;;;;;19.92;50.80;96227.28;10533574;28;1179;-54
2022/11/01 22:37:44;;;;;;;;;;;;;;;19.92;50.94;96221.22;10531296;28;1698;-52
2022/11/01 22:42:46;;;;;;;;;;;;;;;19.90;50.84;96224.09;10541760;28;1959;-53
2022/11/01 22:47:46;;;;;;;;;;;;;;;19.89;50.88;96230.41;10537957;28;1674;-53
2022/11/01 22:52:47;;;;;;;;;;;;;;;19.88;50.96;96220.16;10536043;28;1588;-54
2022/11/01 22:57:53;;;;;;;;;;;;;;;19.90;50.86;96223.31;10534105;28;1468;-53
2022/11/01 23:03:12;;;;;;;;;;;;;;;19.90;50.85;96233.84;10540341;28;1965;-52
2022/11/01 23:08:23;;;;;;;;;;;;;;;19.88;50.86;96231.47;10539466;28;1611;-53
2022/11/01 23:18:46;;;;;;;;;;;;;;;19.89;50.81;96232.22;10532870;28;1608;-52
2022/11/01 23:23:46;;;;;;;;;;;;;;;19.90;50.67;96237.25;10539734;28;1897;-51
2022/11/01 23:28:53;;;;;;;;;;;;;;;19.88;50.76;96243.81;10531078;28;1651;-52
2022/11/01 23:33:53;;;;;;;;;;;;;;;19.87;50.76;96239.59;10539854;28;1147;-54
2022/11/01 23:38:54;;;;;;;;;;;;;;;19.86;50.64;96235.41;10532198;28;1635;-52
2022/11/01 23:43:58;;;;;;;;;;;;;;;19.86;50.81;96241.47;10539494;28;1907;-50
2022/11/01 23:48:59;;;;;;;;;;;;;;;19.87;50.60;96239.59;10535636;28;1722;-51
2022/11/01 23:54:00;;;;;;;;;;;;;;;19.88;50.80;96242.00;10532052;28;1552;-54
2022/11/01 23:59:02;;;;;;;;;;;;;;;19.86;50.63;96245.91;10539471;28;1397;-54
